sensor_id;sensor_type;location;lat;lon;timestamp;pressure;altitude;pressure_sealevel;temperature;humidity
40920;BME280;26652;50.280;19.026;2023-05-03T00:00:13;98948.59;;;12.89;100.00
40920;BME280;26652;50.280;19.026;2023-05-03T00:02:50;98932.47;;;12.89;100.00
40920;BME280;26652;50.280;19.026;2023-05-03T00:05:10;98947.78;;;12.89;100.00
40920;BME280;26652;50.280;19.026;2023-05-03T00:07:20;98942.41;;;12.84;100.00
40920;BME280;26652;50.280;19.026;2023-05-03T00:09:34;98941.72;;;12.75;100.00
40920;BME280;26652;50.280;19.026;2023-05-03T00:11:43;98942.16;;;12.78;100.00
40920;BME280;26652;50.280;19.026;2023-05-03T00:14:06;98951.66;;;12.85;100.00
40920;BME280;26652;50.280;19.026;2023-05-03T00:16:15;98934.16;;;12.82;100.00
40920;BME280;26652;50.280;19.026;2023-05-03T00:18:28;98940.75;;;12.76;100.00
40920;BME280;26652;50.280;19.026;2023-05-03T00:20:37;98942.16;;;12.78;100.00
40920;BME280;26652;50.280;19.026;2023-05-03T00:23:06;98934.69;;;12.77;100.00
40920;BME280;26652;50.280;19.026;2023-05-03T00:25:25;98930.91;;;12.73;100.00
40920;BME280;26652;50.280;19.026;2023-05-03T00:27:39;98936.69;;;12.82;100.00
40920;BME280;26652;50.280;19.026;2023-05-03T00:29:50;98938.28;;;12.83;100.00
40920;BME280;26652;50.280;19.026;2023-05-03T00:32:02;98936.59;;;12.90;100.00
40920;BME280;26652;50.280;19.026;2023-05-03T00:34:08;98932.88;;;12.92;100.00
40920;BME280;26652;50.280;19.026;2023-05-03T00:36:26;98927.53;;;12.87;100.00
40920;BME280;26652;50.280;19.026;2023-05-03T00:38:39;98935.41;;;12.71;100.00
40920;BME280;26652;50.280;19.026;2023-05-03T00:40:54;98926.66;;;12.80;100.00
40920;BME280;26652;50.280;19.026;2023-05-03T00:43:03;98926.84;;;12.78;100.00
40920;BME280;26652;50.280;19.026;2023-05-03T00:45:35;98930.72;;;12.74;100.00
40920;BME280;26652;50.280;19.026;2023-05-03T00:47:44;98938.28;;;12.83;100.00
40920;BME280;26652;50.280;19.026;2023-05-03T00:50:00;98937.75;;;12.87;100.00
40920;BME280;26652;50.280;19.026;2023-05-03T00:52:07;98937.22;;;12.92;100.00
40920;BME280;26652;50.280;19.026;2023-05-03T00:54:19;98927.00;;;12.92;100.00
40920;BME280;26652;50.280;19.026;2023-05-03T00:56:26;98929.53;;;12.92;100.00
40920;BME280;26652;50.280;19.026;2023-05-03T00:58:38;98929.19;;;12.95;100.00
40920;BME280;26652;50.280;19.026;2023-05-03T01:00:48;98934.66;;;12.92;100.00
40920;BME280;26652;50.280;19.026;2023-05-03T01:02:57;98932.63;;;12.87;100.00
40920;BME280;26652;50.280;19.026;2023-05-03T01:05:05;98934.94;;;12.82;100.00
40920;BME280;26652;50.280;19.026;2023-05-03T01:09:55;98948.31;;;12.84;100.00
40920;BME280;26652;50.280;19.026;2023-05-03T01:12:42;98938.75;;;12.71;100.00
40920;BME280;26652;50.280;19.026;2023-05-03T01:17:40;98949.50;;;12.52;100.00
40920;BME280;26652;50.280;19.026;2023-05-03T01:20:03;98944.31;;;12.60;100.00
40920;BME280;26652;50.280;19.026;2023-05-03T01:22:38;98944.56;;;12.65;100.00
40920;BME280;26652;50.280;19.026;2023-05-03T01:24:57;98943.16;;;12.48;100.00
40920;BME280;26652;50.280;19.026;2023-05-03T01:27:07;98944.31;;;12.31;100.00
40920;BME280;26652;50.280;19.026;2023-05-03T01:29:16;98938.88;;;12.34;100.00
40920;BME280;26652;50.280;19.026;2023-05-03T01:31:41;98945.91;;;12.32;100.00
40920;BME280;26652;50.280;19.026;2023-05-03T01:34:04;98948.22;;;12.41;100.00
40920;BME280;26652;50.280;19.026;2023-05-03T01:36:25;98949.09;;;12.34;100.00
40920;BME280;26652;50.280;19.026;2023-05-03T01:38:36;98947.50;;;12.33;100.00
40920;BME280;26652;50.280;19.026;2023-05-03T01:40:51;98951.38;;;12.43;100.00
40920;BME280;26652;50.280;19.026;2023-05-03T01:43:01;98959.47;;;12.47;100.00
40920;BME280;26652;50.280;19.026;2023-05-03T01:45:12;98959.53;;;12.54;100.00
40920;BME280;26652;50.280;19.026;2023-05-03T01:47:18;98952.00;;;12.46;100.00
40920;BME280;26652;50.280;19.026;2023-05-03T01:49:31;98956.44;;;12.58;100.00
40920;BME280;26652;50.280;19.026;2023-05-03T01:51:50;98957.06;;;12.75;100.00
40920;BME280;26652;50.280;19.026;2023-05-03T01:54:10;98942.88;;;12.72;100.00
40920;BME280;26652;50.280;19.026;2023-05-03T01:56:19;98959.16;;;12.71;100.00
40920;BME280;26652;50.280;19.026;2023-05-03T01:58:38;98960.75;;;12.58;100.00
40920;BME280;26652;50.280;19.026;2023-05-03T02:00:47;98964.91;;;12.59;100.00
40920;BME280;26652;50.280;19.026;2023-05-03T02:03:02;98963.22;;;12.51;100.00
40920;BME280;26652;50.280;19.026;2023-05-03T02:05:17;98960.53;;;12.38;100.00
40920;BME280;26652;50.280;19.026;2023-05-03T02:07:28;98956.13;;;12.47;100.00
40920;BME280;26652;50.280;19.026;2023-05-03T02:09:36;98962.63;;;12.64;100.00
40920;BME280;26652;50.280;19.026;2023-05-03T02:11:58;98954.34;;;12.62;100.00
40920;BME280;26652;50.280;19.026;2023-05-03T02:14:09;98962.00;;;12.62;100.00
40920;BME280;26652;50.280;19.026;2023-05-03T02:16:30;98961.56;;;12.58;100.00
40920;BME280;26652;50.280;19.026;2023-05-03T02:18:39;98954.06;;;12.57;100.00
40920;BME280;26652;50.280;19.026;2023-05-03T02:20:53;98953.47;;;12.55;100.00
40920;BME280;26652;50.280;19.026;2023-05-03T02:23:17;98960.69;;;12.66;100.00
40920;BME280;26652;50.280;19.026;2023-05-03T02:25:28;98951.00;;;12.61;100.00
40920;BME280;26652;50.280;19.026;2023-05-03T02:27:37;98952.47;;;12.70;100.00
40920;BME280;26652;50.280;19.026;2023-05-03T02:29:51;98958.81;;;12.74;100.00
40920;BME280;26652;50.280;19.026;2023-05-03T02:32:10;98957.50;;;12.78;100.00
40920;BME280;26652;50.280;19.026;2023-05-03T02:34:24;98960.75;;;12.72;100.00
40920;BME280;26652;50.280;19.026;2023-05-03T02:36:30;98956.09;;;12.76;100.00
40920;BME280;26652;50.280;19.026;2023-05-03T02:38:43;98957.66;;;12.77;100.00
40920;BME280;26652;50.280;19.026;2023-05-03T02:40:58;98951.59;;;12.78;100.00
40920;BME280;26652;50.280;19.026;2023-05-03T02:43:13;98959.97;;;12.72;100.00
40920;BME280;26652;50.280;19.026;2023-05-03T02:45:23;98959.16;;;12.86;100.00
40920;BME280;26652;50.280;19.026;2023-05-03T02:47:38;98951.75;;;12.91;100.00
40920;BME280;26652;50.280;19.026;2023-05-03T02:49:47;98966.56;;;12.81;100.00
40920;BME280;26652;50.280;19.026;2023-05-03T02:52:09;98958.38;;;12.86;100.00
40920;BME280;26652;50.280;19.026;2023-05-03T02:54:18;98962.78;;;12.77;100.00
40920;BME280;26652;50.280;19.026;2023-05-03T02:56:29;98968.34;;;12.66;100.00
40920;BME280;26652;50.280;19.026;2023-05-03T02:58:42;98964.28;;;12.57;100.00
40920;BME280;26652;50.280;19.026;2023-05-03T03:01:01;98973.72;;;12.71;100.00
40920;BME280;26652;50.280;19.026;2023-05-03T03:03:16;98977.50;;;12.75;100.00
40920;BME280;26652;50.280;19.026;2023-05-03T03:05:28;98979.16;;;12.83;100.00
40920;BME280;26652;50.280;19.026;2023-05-03T03:07:37;98975.72;;;12.90;100.00
40920;BME280;26652;50.280;19.026;2023-05-03T03:09:55;98976.94;;;12.94;100.00
40920;BME280;26652;50.280;19.026;2023-05-03T03:12:13;98973.59;;;12.94;100.00
40920;BME280;26652;50.280;19.026;2023-05-03T03:14:22;98983.56;;;12.89;100.00
40920;BME280;26652;50.280;19.026;2023-05-03T03:16:32;98978.81;;;12.86;100.00
40920;BME280;26652;50.280;19.026;2023-05-03T03:18:46;98981.09;;;12.81;100.00
40920;BME280;26652;50.280;19.026;2023-05-03T03:21:03;98984.34;;;12.74;100.00
40920;BME280;26652;50.280;19.026;2023-05-03T03:23:14;98985.06;;;12.68;100.00
40920;BME280;26652;50.280;19.026;2023-05-03T03:25:21;98979.78;;;12.70;100.00
40920;BME280;26652;50.280;19.026;2023-05-03T03:27:40;98982.16;;;12.71;100.00
40920;BME280;26652;50.280;19.026;2023-05-03T03:29:49;98980.31;;;12.65;100.00
40920;BME280;26652;50.280;19.026;2023-05-03T03:32:03;98978.91;;;12.63;100.00
40920;BME280;26652;50.280;19.026;2023-05-03T03:34:14;98985.16;;;12.60;100.00
40920;BME280;26652;50.280;19.026;2023-05-03T03:36:26;98980.41;;;12.57;100.00
40920;BME280;26652;50.280;19.026;2023-05-03T03:38:38;98979.00;;;12.55;100.00
40920;BME280;26652;50.280;19.026;2023-05-03T03:40:59;98967.66;;;12.42;100.00
40920;BME280;26652;50.280;19.026;2023-05-03T03:43:11;98981.09;;;12.51;100.00
40920;BME280;26652;50.280;19.026;2023-05-03T03:45:26;98987.63;;;12.54;100.00
40920;BME280;26652;50.280;19.026;2023-05-03T03:47:39;98988.34;;;12.48;100.00
40920;BME280;26652;50.280;19.026;2023-05-03T03:49:51;98992.84;;;12.46;100.00
40920;BME280;26652;50.280;19.026;2023-05-03T03:52:10;98992.41;;;12.42;100.00
40920;BME280;26652;50.280;19.026;2023-05-03T03:54:29;98988.97;;;12.35;100.00
40920;BME280;26652;50.280;19.026;2023-05-03T03:56:43;98995.13;;;12.40;100.00
40920;BME280;26652;50.280;19.026;2023-05-03T03:58:55;99000.94;;;12.34;100.00
40920;BME280;26652;50.280;19.026;2023-05-03T04:01:10;99002.00;;;12.40;100.00
40920;BME280;26652;50.280;19.026;2023-05-03T04:03:25;99000.13;;;12.34;100.00
40920;BME280;26652;50.280;19.026;2023-05-03T04:05:30;99003.94;;;12.38;100.00
40920;BME280;26652;50.280;19.026;2023-05-03T04:07:47;99002.59;;;12.27;100.00
40920;BME280;26652;50.280;19.026;2023-05-03T04:10:02;99009.81;;;12.24;100.00
40920;BME280;26652;50.280;19.026;2023-05-03T04:12:16;99003.28;;;12.21;100.00
40920;BME280;26652;50.280;19.026;2023-05-03T04:14:32;99002.50;;;12.21;100.00
40920;BME280;26652;50.280;19.026;2023-05-03T04:16:47;99000.47;;;12.16;100.00
40920;BME280;26652;50.280;19.026;2023-05-03T04:18:55;99006.47;;;12.23;100.00
40920;BME280;26652;50.280;19.026;2023-05-03T04:21:11;99019.66;;;12.27;100.00
40920;BME280;26652;50.280;19.026;2023-05-03T04:23:25;99009.97;;;12.22;100.00
40920;BME280;26652;50.280;19.026;2023-05-03T04:25:36;99023.19;;;12.26;100.00
40920;BME280;26652;50.280;19.026;2023-05-03T04:27:51;99017.63;;;12.22;100.00
40920;BME280;26652;50.280;19.026;2023-05-03T04:30:09;99019.22;;;12.23;100.00
40920;BME280;26652;50.280;19.026;2023-05-03T04:32:16;99032.59;;;12.25;100.00
40920;BME280;26652;50.280;19.026;2023-05-03T04:34:31;99027.84;;;12.22;100.00
40920;BME280;26652;50.280;19.026;2023-05-03T04:36:40;99036.91;;;12.25;100.00
40920;BME280;26652;50.280;19.026;2023-05-03T04:38:52;99035.84;;;12.19;100.00
40920;BME280;26652;50.280;19.026;2023-05-03T04:41:08;99037.59;;;12.19;100.00
40920;BME280;26652;50.280;19.026;2023-05-03T04:43:21;99040.50;;;12.16;100.00
40920;BME280;26652;50.280;19.026;2023-05-03T04:45:38;99041.75;;;12.20;100.00
40920;BME280;26652;50.280;19.026;2023-05-03T04:47:53;99039.03;;;12.21;100.00
40920;BME280;26652;50.280;19.026;2023-05-03T04:50:01;99037.72;;;12.25;100.00
40920;BME280;26652;50.280;19.026;2023-05-03T04:52:12;99047.75;;;12.27;100.00
40920;BME280;26652;50.280;19.026;2023-05-03T04:54:21;99044.56;;;12.25;100.00
40920;BME280;26652;50.280;19.026;2023-05-03T04:56:32;99044.41;;;12.26;100.00
40920;BME280;26652;50.280;19.026;2023-05-03T04:58:45;99053.91;;;12.32;100.00
40920;BME280;26652;50.280;19.026;2023-05-03T05:00:58;99051.19;;;12.34;100.00
40920;BME280;26652;50.280;19.026;2023-05-03T05:03:07;99055.78;;;12.38;100.00
40920;BME280;26652;50.280;19.026;2023-05-03T05:05:21;99062.19;;;12.34;100.00
40920;BME280;26652;50.280;19.026;2023-05-03T05:07:29;99057.78;;;12.28;100.00
40920;BME280;26652;50.280;19.026;2023-05-03T05:09:43;99063.56;;;12.22;100.00
40920;BME280;26652;50.280;19.026;2023-05-03T05:11:52;99060.12;;;12.15;100.00
40920;BME280;26652;50.280;19.026;2023-05-03T05:14:06;99065.34;;;12.22;100.00
40920;BME280;26652;50.280;19.026;2023-05-03T05:16:21;99067.31;;;12.11;100.00
40920;BME280;26652;50.280;19.026;2023-05-03T05:18:39;99057.88;;;11.97;100.00
40920;BME280;26652;50.280;19.026;2023-05-03T05:20:47;99074.41;;;12.01;100.00
40920;BME280;26652;50.280;19.026;2023-05-03T05:22:58;99067.16;;;11.90;100.00
40920;BME280;26652;50.280;19.026;2023-05-03T05:25:07;99085.63;;;11.92;100.00
40920;BME280;26652;50.280;19.026;2023-05-03T05:27:22;99085.31;;;11.95;100.00
40920;BME280;26652;50.280;19.026;2023-05-03T05:29:30;99094.03;;;12.01;100.00
40920;BME280;26652;50.280;19.026;2023-05-03T05:31:52;99091.47;;;12.01;100.00
40920;BME280;26652;50.280;19.026;2023-05-03T05:34:08;99096.63;;;11.93;100.00
40920;BME280;26652;50.280;19.026;2023-05-03T05:36:21;99093.28;;;11.92;100.00
40920;BME280;26652;50.280;19.026;2023-05-03T05:38:30;99094.13;;;11.85;100.00
40920;BME280;26652;50.280;19.026;2023-05-03T05:40:47;99103.66;;;11.91;100.00
40920;BME280;26652;50.280;19.026;2023-05-03T05:43:12;99101.78;;;11.85;100.00
40920;BME280;26652;50.280;19.026;2023-05-03T05:45:29;99101.00;;;11.76;100.00
40920;BME280;26652;50.280;19.026;2023-05-03T05:47:42;99108.94;;;11.89;100.00
40920;BME280;26652;50.280;19.026;2023-05-03T05:49:56;99109.16;;;11.71;100.00
40920;BME280;26652;50.280;19.026;2023-05-03T05:52:03;99117.03;;;11.62;100.00
40920;BME280;26652;50.280;19.026;2023-05-03T05:54:24;99104.50;;;11.44;100.00
40920;BME280;26652;50.280;19.026;2023-05-03T05:56:32;99113.72;;;11.53;100.00
40920;BME280;26652;50.280;19.026;2023-05-03T05:58:49;99110.19;;;11.54;100.00
40920;BME280;26652;50.280;19.026;2023-05-03T06:01:03;99116.72;;;11.57;99.89
40920;BME280;26652;50.280;19.026;2023-05-03T06:03:18;99118.31;;;11.58;99.79
40920;BME280;26652;50.280;19.026;2023-05-03T06:05:26;99115.59;;;11.59;99.34
40920;BME280;26652;50.280;19.026;2023-05-03T06:07:42;99125.63;;;11.61;98.70
40920;BME280;26652;50.280;19.026;2023-05-03T06:09:51;99118.31;;;11.58;98.09
40920;BME280;26652;50.280;19.026;2023-05-03T06:12:02;99125.94;;;11.66;98.11
40920;BME280;26652;50.280;19.026;2023-05-03T06:14:22;99125.13;;;11.65;97.86
40920;BME280;26652;50.280;19.026;2023-05-03T06:16:40;99135.62;;;11.70;97.55
40920;BME280;26652;50.280;19.026;2023-05-03T06:18:52;99115.72;;;11.66;97.53
40920;BME280;26652;50.280;19.026;2023-05-03T06:21:03;99137.72;;;11.67;96.90
40920;BME280;26652;50.280;19.026;2023-05-03T06:23:09;99132.94;;;11.64;96.19
40920;BME280;26652;50.280;19.026;2023-05-03T06:25:25;99139.47;;;11.66;96.74
40920;BME280;26652;50.280;19.026;2023-05-03T06:27:33;99143.44;;;11.69;95.96
40920;BME280;26652;50.280;19.026;2023-05-03T06:29:47;99128.19;;;11.61;94.95
40920;BME280;26652;50.280;19.026;2023-05-03T06:31:56;99136.44;;;11.71;95.08
40920;BME280;26652;50.280;19.026;2023-05-03T06:34:08;99140.56;;;11.80;95.49
40920;BME280;26652;50.280;19.026;2023-05-03T06:36:13;99138.34;;;11.77;93.84
40920;BME280;26652;50.280;19.026;2023-05-03T06:38:31;99150.41;;;11.83;94.04
40920;BME280;26652;50.280;19.026;2023-05-03T06:40:43;99147.53;;;11.86;92.31
40920;BME280;26652;50.280;19.026;2023-05-03T06:42:52;99148.69;;;11.75;91.35
40920;BME280;26652;50.280;19.026;2023-05-03T06:45:07;99143.41;;;11.85;92.37
40920;BME280;26652;50.280;19.026;2023-05-03T06:47:29;99147.00;;;11.99;93.01
40920;BME280;26652;50.280;19.026;2023-05-03T06:49:40;99151.94;;;12.00;91.61
40920;BME280;26652;50.280;19.026;2023-05-03T06:51:59;99148.06;;;12.04;91.46
40920;BME280;26652;50.280;19.026;2023-05-03T06:54:08;99151.38;;;12.13;91.63
40920;BME280;26652;50.280;19.026;2023-05-03T06:56:24;99163.13;;;12.22;91.15
40920;BME280;26652;50.280;19.026;2023-05-03T06:58:33;99163.75;;;12.24;89.83
40920;BME280;26652;50.280;19.026;2023-05-03T07:00:56;99156.94;;;12.17;89.81
40920;BME280;26652;50.280;19.026;2023-05-03T07:03:11;99155.16;;;12.17;90.34
40920;BME280;26652;50.280;19.026;2023-05-03T07:05:22;99171.34;;;12.32;90.82
40920;BME280;26652;50.280;19.026;2023-05-03T07:07:34;99171.91;;;12.42;91.21
40920;BME280;26652;50.280;19.026;2023-05-03T07:09:49;99162.56;;;12.50;91.37
40920;BME280;26652;50.280;19.026;2023-05-03T07:12:02;99170.41;;;12.48;87.17
40920;BME280;26652;50.280;19.026;2023-05-03T07:14:13;99167.50;;;12.36;86.74
40920;BME280;26652;50.280;19.026;2023-05-03T07:16:21;99171.13;;;12.42;86.77
40920;BME280;26652;50.280;19.026;2023-05-03T07:18:39;99170.16;;;12.43;86.36
40920;BME280;26652;50.280;19.026;2023-05-03T07:20:48;99176.94;;;12.51;86.11
40920;BME280;26652;50.280;19.026;2023-05-03T07:23:07;99171.94;;;12.57;84.76
40920;BME280;26652;50.280;19.026;2023-05-03T07:25:21;99178.78;;;12.80;84.56
40920;BME280;26652;50.280;19.026;2023-05-03T07:27:36;99175.53;;;12.86;83.05
40920;BME280;26652;50.280;19.026;2023-05-03T07:29:45;99170.59;;;12.84;81.84
40920;BME280;26652;50.280;19.026;2023-05-03T07:32:02;99179.22;;;12.83;80.41
40920;BME280;26652;50.280;19.026;2023-05-03T07:34:15;99175.59;;;12.77;76.55
40920;BME280;26652;50.280;19.026;2023-05-03T07:36:28;99180.41;;;12.95;77.87
40920;BME280;26652;50.280;19.026;2023-05-03T07:38:37;99185.44;;;13.03;77.07
40920;BME280;26652;50.280;19.026;2023-05-03T07:40:50;99189.38;;;12.91;72.57
40920;BME280;26652;50.280;19.026;2023-05-03T07:43:00;99184.97;;;12.85;73.04
40920;BME280;26652;50.280;19.026;2023-05-03T07:45:20;99184.09;;;12.93;74.28
40920;BME280;26652;50.280;19.026;2023-05-03T07:47:41;99187.25;;;13.18;75.97
40920;BME280;26652;50.280;19.026;2023-05-03T07:49:57;99187.44;;;13.31;73.64
40920;BME280;26652;50.280;19.026;2023-05-03T07:52:06;99176.22;;;13.32;74.38
40920;BME280;26652;50.280;19.026;2023-05-03T07:54:20;99188.13;;;13.39;72.80
40920;BME280;26652;50.280;19.026;2023-05-03T07:56:33;99176.22;;;13.32;71.38
40920;BME280;26652;50.280;19.026;2023-05-03T07:58:52;99185.66;;;13.31;72.50
40920;BME280;26652;50.280;19.026;2023-05-03T08:01:02;99170.75;;;13.20;72.45
40920;BME280;26652;50.280;19.026;2023-05-03T08:03:14;99192.81;;;13.36;71.57
40920;BME280;26652;50.280;19.026;2023-05-03T08:05:22;99190.16;;;13.44;71.74
40920;BME280;26652;50.280;19.026;2023-05-03T08:07:40;99186.56;;;13.38;71.63
40920;BME280;26652;50.280;19.026;2023-05-03T08:09:55;99188.41;;;13.45;72.34
40920;BME280;26652;50.280;19.026;2023-05-03T08:12:10;99187.94;;;13.56;73.87
40920;BME280;26652;50.280;19.026;2023-05-03T08:14:18;99184.81;;;13.75;75.24
40920;BME280;26652;50.280;19.026;2023-05-03T08:16:31;99187.72;;;13.87;73.97
40920;BME280;26652;50.280;19.026;2023-05-03T08:18:49;99191.59;;;13.83;75.45
40920;BME280;26652;50.280;19.026;2023-05-03T08:21:01;99193.03;;;13.70;73.96
40920;BME280;26652;50.280;19.026;2023-05-03T08:23:16;99192.59;;;13.52;73.07
40920;BME280;26652;50.280;19.026;2023-05-03T08:25:28;99192.81;;;13.36;75.65
40920;BME280;26652;50.280;19.026;2023-05-03T08:27:40;99192.53;;;13.31;75.87
40920;BME280;26652;50.280;19.026;2023-05-03T08:30:00;99192.44;;;13.24;75.83
40920;BME280;26652;50.280;19.026;2023-05-03T08:32:12;99196.25;;;13.28;74.25
40920;BME280;26652;50.280;19.026;2023-05-03T08:34:33;99193.78;;;13.35;74.73
40920;BME280;26652;50.280;19.026;2023-05-03T08:36:59;99201.97;;;13.30;72.27
40920;BME280;26652;50.280;19.026;2023-05-03T08:39:12;99187.78;;;13.28;73.41
40920;BME280;26652;50.280;19.026;2023-05-03T08:41:31;99196.75;;;13.53;73.60
40920;BME280;26652;50.280;19.026;2023-05-03T08:43:44;99210.16;;;13.70;73.69
40920;BME280;26652;50.280;19.026;2023-05-03T08:45:51;99208.28;;;13.64;72.68
40920;BME280;26652;50.280;19.026;2023-05-03T08:48:07;99197.12;;;13.35;72.31
40920;BME280;26652;50.280;19.026;2023-05-03T08:50:19;99206.13;;;13.46;73.88
40920;BME280;26652;50.280;19.026;2023-05-03T08:52:34;99216.00;;;13.49;74.00
40920;BME280;26652;50.280;19.026;2023-05-03T08:54:42;99217.03;;;13.55;73.45
40920;BME280;26652;50.280;19.026;2023-05-03T08:57:02;99218.91;;;13.46;73.23
40920;BME280;26652;50.280;19.026;2023-05-03T08:59:15;99231.97;;;13.51;73.43
40920;BME280;26652;50.280;19.026;2023-05-03T09:01:28;99222.94;;;13.55;74.62
40920;BME280;26652;50.280;19.026;2023-05-03T09:03:49;99226.06;;;13.51;73.76
40920;BME280;26652;50.280;19.026;2023-05-03T09:05:58;99223.25;;;13.46;72.94
40920;BME280;26652;50.280;19.026;2023-05-03T09:08:26;99229.22;;;13.23;73.01
40920;BME280;26652;50.280;19.026;2023-05-03T09:10:42;99232.75;;;13.22;72.53
40920;BME280;26652;50.280;19.026;2023-05-03T09:12:58;99233.44;;;13.31;73.10
40920;BME280;26652;50.280;19.026;2023-05-03T09:15:07;99232.03;;;13.28;73.28
40920;BME280;26652;50.280;19.026;2023-05-03T09:17:19;99218.75;;;13.10;73.66
40920;BME280;26652;50.280;19.026;2023-05-03T09:19:49;99223.53;;;13.13;73.55
40920;BME280;26652;50.280;19.026;2023-05-03T09:22:06;99235.03;;;13.32;75.17
40920;BME280;26652;50.280;19.026;2023-05-03T09:24:21;99236.53;;;13.26;71.81
40920;BME280;26652;50.280;19.026;2023-05-03T09:26:34;99238.81;;;13.21;72.21
40920;BME280;26652;50.280;19.026;2023-05-03T09:28:46;99232.84;;;13.29;71.61
40920;BME280;26652;50.280;19.026;2023-05-03T09:31:05;99236.56;;;13.41;71.57
40920;BME280;26652;50.280;19.026;2023-05-03T09:33:14;99241.66;;;13.41;70.94
40920;BME280;26652;50.280;19.026;2023-05-03T09:35:35;99238.47;;;13.24;69.94
40920;BME280;26652;50.280;19.026;2023-05-03T09:37:49;99237.56;;;13.17;69.34
40920;BME280;26652;50.280;19.026;2023-05-03T09:40:05;99251.16;;;13.18;69.63
40920;BME280;26652;50.280;19.026;2023-05-03T09:42:20;99240.94;;;13.18;70.56
40920;BME280;26652;50.280;19.026;2023-05-03T09:44:47;99250.72;;;13.29;70.20
40920;BME280;26652;50.280;19.026;2023-05-03T09:47:06;99233.38;;;13.39;72.00
40920;BME280;26652;50.280;19.026;2023-05-03T09:49:21;99240.44;;;13.52;70.36
40920;BME280;26652;50.280;19.026;2023-05-03T09:51:37;99246.44;;;13.44;70.08
40920;BME280;26652;50.280;19.026;2023-05-03T09:53:46;99242.00;;;13.38;69.48
40920;BME280;26652;50.280;19.026;2023-05-03T09:55:56;99251.78;;;13.34;70.08
40920;BME280;26652;50.280;19.026;2023-05-03T09:58:03;99250.03;;;13.35;69.95
40920;BME280;26652;50.280;19.026;2023-05-03T10:00:14;99243.69;;;13.31;69.69
40920;BME280;26652;50.280;19.026;2023-05-03T10:02:22;99245.81;;;13.42;69.69
40920;BME280;26652;50.280;19.026;2023-05-03T10:04:49;99249.66;;;13.53;69.98
40920;BME280;26652;50.280;19.026;2023-05-03T10:07:01;99244.13;;;13.64;69.67
40920;BME280;26652;50.280;19.026;2023-05-03T10:09:30;99244.28;;;13.77;70.11
40920;BME280;26652;50.280;19.026;2023-05-03T10:11:45;99240.31;;;13.89;70.08
40920;BME280;26652;50.280;19.026;2023-05-03T10:13:57;99239.69;;;14.02;69.25
40920;BME280;26652;50.280;19.026;2023-05-03T10:16:07;99237.47;;;13.99;70.20
40920;BME280;26652;50.280;19.026;2023-05-03T10:18:20;99243.28;;;14.07;69.53
40920;BME280;26652;50.280;19.026;2023-05-03T10:23:10;99242.06;;;13.89;68.76
40920;BME280;26652;50.280;19.026;2023-05-03T10:25:16;99244.72;;;13.81;69.19
40920;BME280;26652;50.280;19.026;2023-05-03T10:27:50;99242.97;;;13.81;68.87
40920;BME280;26652;50.280;19.026;2023-05-03T10:29:55;99237.22;;;13.79;69.19
40920;BME280;26652;50.280;19.026;2023-05-03T10:32:27;99231.91;;;13.95;70.21
40920;BME280;26652;50.280;19.026;2023-05-03T10:34:33;99240.66;;;14.01;69.14
40920;BME280;26652;50.280;19.026;2023-05-03T10:36:48;99249.66;;;13.97;68.79
40920;BME280;26652;50.280;19.026;2023-05-03T10:38:57;99240.66;;;14.01;69.48
40920;BME280;26652;50.280;19.026;2023-05-03T10:41:23;99236.50;;;14.00;69.82
40920;BME280;26652;50.280;19.026;2023-05-03T10:45:52;99240.50;;;13.73;69.86
40920;BME280;26652;50.280;19.026;2023-05-03T10:48:16;99241.28;;;13.73;73.36
40920;BME280;26652;50.280;19.026;2023-05-03T10:50:27;99249.22;;;13.79;71.11
40920;BME280;26652;50.280;19.026;2023-05-03T10:52:55;99241.31;;;13.44;70.72
40920;BME280;26652;50.280;19.026;2023-05-03T10:55:21;99246.25;;;13.46;71.14
40920;BME280;26652;50.280;19.026;2023-05-03T10:57:31;99240.78;;;13.49;71.35
40920;BME280;26652;50.280;19.026;2023-05-03T10:59:50;99243.69;;;13.46;71.49
40920;BME280;26652;50.280;19.026;2023-05-03T11:01:59;99236.19;;;13.44;72.00
40920;BME280;26652;50.280;19.026;2023-05-03T11:04:55;99250.84;;;13.50;70.84
40920;BME280;26652;50.280;19.026;2023-05-03T11:06:41;99242.00;;;13.38;70.92
40920;BME280;26652;50.280;19.026;2023-05-03T11:09:08;99243.50;;;13.32;70.38
40920;BME280;26652;50.280;19.026;2023-05-03T11:11:16;99242.00;;;13.38;70.99
40920;BME280;26652;50.280;19.026;2023-05-03T11:13:30;99240.88;;;13.40;70.88
40920;BME280;26652;50.280;19.026;2023-05-03T11:15:38;99242.62;;;13.40;71.65
40920;BME280;26652;50.280;19.026;2023-05-03T11:17:50;99243.78;;;13.37;71.69
40920;BME280;26652;50.280;19.026;2023-05-03T11:20:06;99242.62;;;13.40;72.05
40920;BME280;26652;50.280;19.026;2023-05-03T11:22:17;99249.25;;;13.49;71.02
40920;BME280;26652;50.280;19.026;2023-05-03T11:24:29;99241.13;;;13.60;70.92
40920;BME280;26652;50.280;19.026;2023-05-03T11:26:38;99246.94;;;13.69;70.05
40920;BME280;26652;50.280;19.026;2023-05-03T11:28:53;99252.22;;;13.82;69.83
40920;BME280;26652;50.280;19.026;2023-05-03T11:31:10;99243.03;;;13.88;69.04
40920;BME280;26652;50.280;19.026;2023-05-03T11:33:16;99241.63;;;14.00;68.25
40920;BME280;26652;50.280;19.026;2023-05-03T11:35:30;99239.81;;;14.15;68.23
40920;BME280;26652;50.280;19.026;2023-05-03T11:37:35;99246.53;;;14.16;66.47
40920;BME280;26652;50.280;19.026;2023-05-03T11:39:53;99241.50;;;14.08;64.79
40920;BME280;26652;50.280;19.026;2023-05-03T11:42:04;99231.53;;;14.13;65.87
40920;BME280;26652;50.280;19.026;2023-05-03T11:44:13;99237.41;;;14.28;66.00
40920;BME280;26652;50.280;19.026;2023-05-03T11:46:39;99235.16;;;14.40;65.95